sensor_id;sensor_type;location;lat;lon;timestamp;temperature;humidity
68977;SHT31;56029;52.568;13.588;2023-12-29T00:00:37;7.13;91.99
68977;SHT31;56029;52.568;13.588;2023-12-29T00:03:22;7.16;91.84
68977;SHT31;56029;52.568;13.588;2023-12-29T00:05:48;7.18;91.87
68977;SHT31;56029;52.568;13.588;2023-12-29T00:08:13;7.22;91.56
68977;SHT31;56029;52.568;13.588;2023-12-29T00:10:39;7.24;91.69
68977;SHT31;56029;52.568;13.588;2023-12-29T00:13:04;7.30;91.37
68977;SHT31;56029;52.568;13.588;2023-12-29T00:15:30;7.29;91.50
68977;SHT31;56029;52.568;13.588;2023-12-29T00:17:56;7.24;91.58
68977;SHT31;56029;52.568;13.588;2023-12-29T00:20:21;7.30;91.50
68977;SHT31;56029;52.568;13.588;2023-12-29T00:22:47;7.32;91.59
68977;SHT31;56029;52.568;13.588;2023-12-29T00:25:12;7.34;91.41
68977;SHT31;56029;52.568;13.588;2023-12-29T00:27:38;7.36;91.57
68977;SHT31;56029;52.568;13.588;2023-12-29T00:30:04;7.39;91.46
68977;SHT31;56029;52.568;13.588;2023-12-29T00:32:29;7.36;91.51
68977;SHT31;56029;52.568;13.588;2023-12-29T00:34:55;7.34;91.27
68977;SHT31;56029;52.568;13.588;2023-12-29T00:37:20;7.33;91.50
68977;SHT31;56029;52.568;13.588;2023-12-29T00:39:46;7.42;91.11
68977;SHT31;56029;52.568;13.588;2023-12-29T00:42:11;7.42;91.05
68977;SHT31;56029;52.568;13.588;2023-12-29T00:44:37;7.43;91.00
68977;SHT31;56029;52.568;13.588;2023-12-29T00:47:02;7.44;90.94
68977;SHT31;56029;52.568;13.588;2023-12-29T00:49:28;7.47;90.70
68977;SHT31;56029;52.568;13.588;2023-12-29T00:51:54;7.50;90.61
68977;SHT31;56029;52.568;13.588;2023-12-29T00:54:19;7.54;90.38
68977;SHT31;56029;52.568;13.588;2023-12-29T00:56:49;7.57;90.33
68977;SHT31;56029;52.568;13.588;2023-12-29T00:59:14;7.56;90.26
68977;SHT31;56029;52.568;13.588;2023-12-29T01:01:40;7.59;90.05
68977;SHT31;56029;52.568;13.588;2023-12-29T01:04:05;7.56;90.14
68977;SHT31;56029;52.568;13.588;2023-12-29T01:06:31;7.59;89.81
68977;SHT31;56029;52.568;13.588;2023-12-29T01:08:56;7.61;89.90
68977;SHT31;56029;52.568;13.588;2023-12-29T01:11:22;7.61;89.77
68977;SHT31;56029;52.568;13.588;2023-12-29T01:13:48;7.63;89.80
68977;SHT31;56029;52.568;13.588;2023-12-29T01:16:13;7.63;89.62
68977;SHT31;56029;52.568;13.588;2023-12-29T01:18:39;7.66;89.39
68977;SHT31;56029;52.568;13.588;2023-12-29T01:21:04;7.61;89.62
68977;SHT31;56029;52.568;13.588;2023-12-29T01:23:30;7.64;89.42
68977;SHT31;56029;52.568;13.588;2023-12-29T01:25:55;7.67;89.50
68977;SHT31;56029;52.568;13.588;2023-12-29T01:28:21;7.67;89.25
68977;SHT31;56029;52.568;13.588;2023-12-29T01:30:46;7.67;89.20
68977;SHT31;56029;52.568;13.588;2023-12-29T01:33:12;7.73;88.96
68977;SHT31;56029;52.568;13.588;2023-12-29T01:35:38;7.73;88.89
68977;SHT31;56029;52.568;13.588;2023-12-29T01:38:04;7.69;89.17
68977;SHT31;56029;52.568;13.588;2023-12-29T01:40:29;7.71;88.93
68977;SHT31;56029;52.568;13.588;2023-12-29T01:42:55;7.73;88.80
68977;SHT31;56029;52.568;13.588;2023-12-29T01:45:24;7.77;88.74
68977;SHT31;56029;52.568;13.588;2023-12-29T01:47:50;7.81;88.55
68977;SHT31;56029;52.568;13.588;2023-12-29T01:50:17;7.80;88.56
68977;SHT31;56029;52.568;13.588;2023-12-29T01:52:43;7.77;88.64
68977;SHT31;56029;52.568;13.588;2023-12-29T01:55:12;7.73;88.81
68977;SHT31;56029;52.568;13.588;2023-12-29T01:57:39;7.73;88.84
68977;SHT31;56029;52.568;13.588;2023-12-29T02:00:06;7.69;89.03
68977;SHT31;56029;52.568;13.588;2023-12-29T02:02:32;7.69;89.18
68977;SHT31;56029;52.568;13.588;2023-12-29T02:04:58;7.69;88.93
68977;SHT31;56029;52.568;13.588;2023-12-29T02:07:23;7.67;89.03
68977;SHT31;56029;52.568;13.588;2023-12-29T02:09:49;7.70;88.84
68977;SHT31;56029;52.568;13.588;2023-12-29T02:12:14;7.80;88.47
68977;SHT31;56029;52.568;13.588;2023-12-29T02:14:40;7.73;88.74
68977;SHT31;56029;52.568;13.588;2023-12-29T02:17:10;7.70;88.93
68977;SHT31;56029;52.568;13.588;2023-12-29T02:19:39;7.70;88.84
68977;SHT31;56029;52.568;13.588;2023-12-29T02:22:05;7.67;89.23
68977;SHT31;56029;52.568;13.588;2023-12-29T02:24:33;7.69;88.96
68977;SHT31;56029;52.568;13.588;2023-12-29T02:29:32;7.67;89.16
68977;SHT31;56029;52.568;13.588;2023-12-29T02:31:59;7.63;89.28
68977;SHT31;56029;52.568;13.588;2023-12-29T02:34:27;7.63;89.41
68977;SHT31;56029;52.568;13.588;2023-12-29T02:36:55;7.66;89.38
68977;SHT31;56029;52.568;13.588;2023-12-29T02:39:22;7.70;89.07
68977;SHT31;56029;52.568;13.588;2023-12-29T02:41:47;7.73;89.04
68977;SHT31;56029;52.568;13.588;2023-12-29T02:44:13;7.66;89.31
68977;SHT31;56029;52.568;13.588;2023-12-29T02:46:38;7.67;89.23
68977;SHT31;56029;52.568;13.588;2023-12-29T02:49:04;7.66;89.08
68977;SHT31;56029;52.568;13.588;2023-12-29T02:51:30;7.75;88.82
68977;SHT31;56029;52.568;13.588;2023-12-29T02:53:55;7.73;89.10
68977;SHT31;56029;52.568;13.588;2023-12-29T02:56:21;7.78;89.06
68977;SHT31;56029;52.568;13.588;2023-12-29T02:58:47;7.84;88.72
68977;SHT31;56029;52.568;13.588;2023-12-29T03:01:12;7.84;88.76
68977;SHT31;56029;52.568;13.588;2023-12-29T03:03:38;7.88;88.64
68977;SHT31;56029;52.568;13.588;2023-12-29T03:06:03;7.94;88.43
68977;SHT31;56029;52.568;13.588;2023-12-29T03:08:29;7.87;88.63
68977;SHT31;56029;52.568;13.588;2023-12-29T03:10:54;7.95;88.30
68977;SHT31;56029;52.568;13.588;2023-12-29T03:13:20;7.94;88.52
68977;SHT31;56029;52.568;13.588;2023-12-29T03:15:45;7.98;88.24
68977;SHT31;56029;52.568;13.588;2023-12-29T03:18:11;8.03;88.12
68977;SHT31;56029;52.568;13.588;2023-12-29T03:20:36;8.03;88.22
68977;SHT31;56029;52.568;13.588;2023-12-29T03:23:02;8.02;88.25
68977;SHT31;56029;52.568;13.588;2023-12-29T03:25:27;8.06;88.16
68977;SHT31;56029;52.568;13.588;2023-12-29T03:27:53;7.97;88.22
68977;SHT31;56029;52.568;13.588;2023-12-29T03:30:18;7.99;87.78
68977;SHT31;56029;52.568;13.588;2023-12-29T03:32:44;7.97;87.98
68977;SHT31;56029;52.568;13.588;2023-12-29T03:35:10;8.01;87.88
68977;SHT31;56029;52.568;13.588;2023-12-29T03:37:35;7.99;87.93
68977;SHT31;56029;52.568;13.588;2023-12-29T03:40:01;8.01;88.01
68977;SHT31;56029;52.568;13.588;2023-12-29T03:42:26;8.06;87.84
68977;SHT31;56029;52.568;13.588;2023-12-29T03:44:52;8.06;88.03
68977;SHT31;56029;52.568;13.588;2023-12-29T03:47:17;8.09;87.86
68977;SHT31;56029;52.568;13.588;2023-12-29T03:49:43;8.06;88.00
68977;SHT31;56029;52.568;13.588;2023-12-29T03:52:08;8.08;87.69
68977;SHT31;56029;52.568;13.588;2023-12-29T03:54:34;8.09;87.89
68977;SHT31;56029;52.568;13.588;2023-12-29T03:56:59;8.12;87.76
68977;SHT31;56029;52.568;13.588;2023-12-29T03:59:25;8.13;87.75
68977;SHT31;56029;52.568;13.588;2023-12-29T04:01:50;8.22;87.44
68977;SHT31;56029;52.568;13.588;2023-12-29T04:04:16;8.26;87.34
68977;SHT31;56029;52.568;13.588;2023-12-29T04:06:41;8.25;87.39
68977;SHT31;56029;52.568;13.588;2023-12-29T04:09:07;8.36;86.95
68977;SHT31;56029;52.568;13.588;2023-12-29T04:11:32;8.40;86.89
68977;SHT31;56029;52.568;13.588;2023-12-29T04:13:58;8.40;87.19
68977;SHT31;56029;52.568;13.588;2023-12-29T04:16:24;8.38;86.93
68977;SHT31;56029;52.568;13.588;2023-12-29T04:18:49;8.33;87.20
68977;SHT31;56029;52.568;13.588;2023-12-29T04:21:15;8.25;87.32
68977;SHT31;56029;52.568;13.588;2023-12-29T04:23:41;8.26;87.07
68977;SHT31;56029;52.568;13.588;2023-12-29T04:26:06;8.28;87.20
68977;SHT31;56029;52.568;13.588;2023-12-29T04:28:32;8.21;87.43
68977;SHT31;56029;52.568;13.588;2023-12-29T04:30:57;8.18;87.31
68977;SHT31;56029;52.568;13.588;2023-12-29T04:33:23;8.24;87.06
68977;SHT31;56029;52.568;13.588;2023-12-29T04:35:48;8.26;87.25
68977;SHT31;56029;52.568;13.588;2023-12-29T04:38:14;8.26;87.12
68977;SHT31;56029;52.568;13.588;2023-12-29T04:40:39;8.22;87.10
68977;SHT31;56029;52.568;13.588;2023-12-29T04:43:05;8.19;87.41
68977;SHT31;56029;52.568;13.588;2023-12-29T04:45:30;8.15;87.44
68977;SHT31;56029;52.568;13.588;2023-12-29T04:47:56;8.11;87.60
68977;SHT31;56029;52.568;13.588;2023-12-29T04:50:21;8.11;87.46
68977;SHT31;56029;52.568;13.588;2023-12-29T04:52:47;8.09;87.52
68977;SHT31;56029;52.568;13.588;2023-12-29T04:55:12;8.11;87.57
68977;SHT31;56029;52.568;13.588;2023-12-29T04:57:38;8.11;87.62
68977;SHT31;56029;52.568;13.588;2023-12-29T05:00:04;8.03;87.89
68977;SHT31;56029;52.568;13.588;2023-12-29T05:02:29;8.08;87.80
68977;SHT31;56029;52.568;13.588;2023-12-29T05:04:55;8.08;87.69
68977;SHT31;56029;52.568;13.588;2023-12-29T05:07:20;8.09;87.97
68977;SHT31;56029;52.568;13.588;2023-12-29T05:09:46;8.12;87.84
68977;SHT31;56029;52.568;13.588;2023-12-29T05:12:11;8.09;88.12
68977;SHT31;56029;52.568;13.588;2023-12-29T05:14:37;8.13;87.89
68977;SHT31;56029;52.568;13.588;2023-12-29T05:17:03;8.16;87.96
68977;SHT31;56029;52.568;13.588;2023-12-29T05:19:28;8.19;88.01
68977;SHT31;56029;52.568;13.588;2023-12-29T05:21:54;8.16;88.13
68977;SHT31;56029;52.568;13.588;2023-12-29T05:24:19;8.13;88.20
68977;SHT31;56029;52.568;13.588;2023-12-29T05:26:45;8.19;88.10
68977;SHT31;56029;52.568;13.588;2023-12-29T05:29:10;8.16;88.25
68977;SHT31;56029;52.568;13.588;2023-12-29T05:31:36;8.24;87.96
68977;SHT31;56029;52.568;13.588;2023-12-29T05:34:01;8.24;88.07
68977;SHT31;56029;52.568;13.588;2023-12-29T05:36:27;8.32;87.87
68977;SHT31;56029;52.568;13.588;2023-12-29T05:38:52;8.30;88.08
68977;SHT31;56029;52.568;13.588;2023-12-29T05:41:19;8.33;87.93
68977;SHT31;56029;52.568;13.588;2023-12-29T05:43:44;8.33;88.03
68977;SHT31;56029;52.568;13.588;2023-12-29T05:46:10;8.30;88.04
68977;SHT31;56029;52.568;13.588;2023-12-29T05:48:36;8.28;88.23
68977;SHT31;56029;52.568;13.588;2023-12-29T05:51:09;8.40;87.74
68977;SHT31;56029;52.568;13.588;2023-12-29T05:53:36;8.49;87.65
68977;SHT31;56029;52.568;13.588;2023-12-29T05:56:01;8.48;87.68
68977;SHT31;56029;52.568;13.588;2023-12-29T05:58:27;8.46;87.52
68977;SHT31;56029;52.568;13.588;2023-12-29T06:00:54;8.42;87.84
68977;SHT31;56029;52.568;13.588;2023-12-29T06:03:20;8.50;87.49
68977;SHT31;56029;52.568;13.588;2023-12-29T06:05:45;8.49;87.48
68977;SHT31;56029;52.568;13.588;2023-12-29T06:08:11;8.50;87.32
68977;SHT31;56029;52.568;13.588;2023-12-29T06:10:36;8.54;87.12
68977;SHT31;56029;52.568;13.588;2023-12-29T06:13:02;8.50;87.33
68977;SHT31;56029;52.568;13.588;2023-12-29T06:15:28;8.56;87.10
68977;SHT31;56029;52.568;13.588;2023-12-29T06:17:53;8.60;87.03
68977;SHT31;56029;52.568;13.588;2023-12-29T06:20:19;8.67;86.59
68977;SHT31;56029;52.568;13.588;2023-12-29T06:22:44;8.69;86.70
68977;SHT31;56029;52.568;13.588;2023-12-29T06:25:10;8.71;86.34
68977;SHT31;56029;52.568;13.588;2023-12-29T06:27:36;8.70;86.34
68977;SHT31;56029;52.568;13.588;2023-12-29T06:30:02;8.76;86.03
68977;SHT31;56029;52.568;13.588;2023-12-29T06:32:27;8.80;85.92
68977;SHT31;56029;52.568;13.588;2023-12-29T06:34:53;8.84;85.74
68977;SHT31;56029;52.568;13.588;2023-12-29T06:37:18;8.77;85.97
68977;SHT31;56029;52.568;13.588;2023-12-29T06:39:44;8.85;85.61
68977;SHT31;56029;52.568;13.588;2023-12-29T06:42:09;8.84;85.81
68977;SHT31;56029;52.568;13.588;2023-12-29T06:44:35;8.84;85.76
68977;SHT31;56029;52.568;13.588;2023-12-29T06:47:00;8.83;85.83
68977;SHT31;56029;52.568;13.588;2023-12-29T06:49:26;8.81;85.88
68977;SHT31;56029;52.568;13.588;2023-12-29T06:51:52;8.84;85.64
68977;SHT31;56029;52.568;13.588;2023-12-29T06:54:17;8.83;85.85
68977;SHT31;56029;52.568;13.588;2023-12-29T06:56:43;8.83;85.62
68977;SHT31;56029;52.568;13.588;2023-12-29T06:59:08;8.85;85.76
68977;SHT31;56029;52.568;13.588;2023-12-29T07:01:38;8.90;85.42
68977;SHT31;56029;52.568;13.588;2023-12-29T07:04:03;8.87;85.43
68977;SHT31;56029;52.568;13.588;2023-12-29T07:06:29;8.83;85.69
68977;SHT31;56029;52.568;13.588;2023-12-29T07:08:54;8.80;85.72
68977;SHT31;56029;52.568;13.588;2023-12-29T07:11:21;8.79;85.91
68977;SHT31;56029;52.568;13.588;2023-12-29T07:13:46;8.88;85.88
68977;SHT31;56029;52.568;13.588;2023-12-29T07:16:12;8.87;86.09
68977;SHT31;56029;52.568;13.588;2023-12-29T07:18:37;8.87;85.79
68977;SHT31;56029;52.568;13.588;2023-12-29T07:21:03;8.87;86.03
68977;SHT31;56029;52.568;13.588;2023-12-29T07:23:28;8.97;85.50
68977;SHT31;56029;52.568;13.588;2023-12-29T07:25:54;9.00;85.74
68977;SHT31;56029;52.568;13.588;2023-12-29T07:28:19;9.10;85.68
68977;SHT31;56029;52.568;13.588;2023-12-29T07:30:45;9.10;85.38
68977;SHT31;56029;52.568;13.588;2023-12-29T07:33:10;9.11;85.35
68977;SHT31;56029;52.568;13.588;2023-12-29T07:35:36;9.18;85.07
68977;SHT31;56029;52.568;13.588;2023-12-29T07:38:01;9.21;85.08
68977;SHT31;56029;52.568;13.588;2023-12-29T07:40:27;9.24;84.91
68977;SHT31;56029;52.568;13.588;2023-12-29T07:42:52;9.24;85.18
68977;SHT31;56029;52.568;13.588;2023-12-29T07:45:18;9.32;84.55
68977;SHT31;56029;52.568;13.588;2023-12-29T07:47:43;9.32;84.85
68977;SHT31;56029;52.568;13.588;2023-12-29T07:50:09;9.29;84.76
68977;SHT31;56029;52.568;13.588;2023-12-29T07:52:34;9.32;84.62
68977;SHT31;56029;52.568;13.588;2023-12-29T07:55:00;9.35;84.80
68977;SHT31;56029;52.568;13.588;2023-12-29T07:57:26;9.31;84.90
68977;SHT31;56029;52.568;13.588;2023-12-29T07:59:51;9.39;84.69
68977;SHT31;56029;52.568;13.588;2023-12-29T08:02:17;9.39;84.72
68977;SHT31;56029;52.568;13.588;2023-12-29T08:04:42;9.36;85.02
68977;SHT31;56029;52.568;13.588;2023-12-29T08:07:08;9.38;84.87
68977;SHT31;56029;52.568;13.588;2023-12-29T08:09:33;9.42;85.01
68977;SHT31;56029;52.568;13.588;2023-12-29T08:11:59;9.46;84.96
68977;SHT31;56029;52.568;13.588;2023-12-29T08:14:24;9.46;84.91
68977;SHT31;56029;52.568;13.588;2023-12-29T08:16:50;9.49;84.73
68977;SHT31;56029;52.568;13.588;2023-12-29T08:19:16;9.52;84.36
68977;SHT31;56029;52.568;13.588;2023-12-29T08:21:41;9.53;84.56
68977;SHT31;56029;52.568;13.588;2023-12-29T08:24:07;9.56;84.37
68977;SHT31;56029;52.568;13.588;2023-12-29T08:26:32;9.56;84.40
68977;SHT31;56029;52.568;13.588;2023-12-29T08:28:58;9.62;84.27
68977;SHT31;56029;52.568;13.588;2023-12-29T08:31:23;9.60;84.28
68977;SHT31;56029;52.568;13.588;2023-12-29T08:33:49;9.66;84.12
68977;SHT31;56029;52.568;13.588;2023-12-29T08:36:18;9.70;84.19
68977;SHT31;56029;52.568;13.588;2023-12-29T08:38:43;9.77;84.01
68977;SHT31;56029;52.568;13.588;2023-12-29T08:41:09;9.77;83.90
68977;SHT31;56029;52.568;13.588;2023-12-29T08:43:35;9.75;83.83
68977;SHT31;56029;52.568;13.588;2023-12-29T08:46:00;9.75;83.95
68977;SHT31;56029;52.568;13.588;2023-12-29T08:48:26;9.80;83.83
68977;SHT31;56029;52.568;13.588;2023-12-29T08:50:51;9.73;84.16
68977;SHT31;56029;52.568;13.588;2023-12-29T08:53:17;9.76;83.87
68977;SHT31;56029;52.568;13.588;2023-12-29T08:55:42;9.79;83.59
68977;SHT31;56029;52.568;13.588;2023-12-29T08:58:08;9.82;83.67
68977;SHT31;56029;52.568;13.588;2023-12-29T09:00:33;9.82;83.64
68977;SHT31;56029;52.568;13.588;2023-12-29T09:02:59;9.76;83.96
68977;SHT31;56029;52.568;13.588;2023-12-29T09:05:25;9.69;83.96
68977;SHT31;56029;52.568;13.588;2023-12-29T09:07:50;9.69;83.94
68977;SHT31;56029;52.568;13.588;2023-12-29T09:10:16;9.67;84.22
68977;SHT31;56029;52.568;13.588;2023-12-29T09:12:42;9.73;84.04
68977;SHT31;56029;52.568;13.588;2023-12-29T09:15:07;9.72;84.12
68977;SHT31;56029;52.568;13.588;2023-12-29T09:17:34;9.72;83.98
68977;SHT31;56029;52.568;13.588;2023-12-29T09:19:59;9.82;84.02
68977;SHT31;56029;52.568;13.588;2023-12-29T09:22:25;9.83;83.82
68977;SHT31;56029;52.568;13.588;2023-12-29T09:24:50;9.96;83.30
68977;SHT31;56029;52.568;13.588;2023-12-29T09:27:16;10.06;82.89
68977;SHT31;56029;52.568;13.588;2023-12-29T09:29:41;10.17;82.55
68977;SHT31;56029;52.568;13.588;2023-12-29T09:32:07;10.20;82.89
68977;SHT31;56029;52.568;13.588;2023-12-29T09:34:32;10.22;82.33
68977;SHT31;56029;52.568;13.588;2023-12-29T09:36:58;10.30;82.20
68977;SHT31;56029;52.568;13.588;2023-12-29T09:39:26;10.27;82.26
68977;SHT31;56029;52.568;13.588;2023-12-29T09:41:52;10.24;82.70
68977;SHT31;56029;52.568;13.588;2023-12-29T09:44:21;10.25;82.47
68977;SHT31;56029;52.568;13.588;2023-12-29T09:46:53;10.30;82.09
68977;SHT31;56029;52.568;13.588;2023-12-29T09:49:19;10.28;82.70
68977;SHT31;56029;52.568;13.588;2023-12-29T09:51:46;10.30;82.38
68977;SHT31;56029;52.568;13.588;2023-12-29T09:54:12;10.34;82.60
68977;SHT31;56029;52.568;13.588;2023-12-29T09:56:39;10.34;82.42
68977;SHT31;56029;52.568;13.588;2023-12-29T09:59:06;10.40;82.19
68977;SHT31;56029;52.568;13.588;2023-12-29T10:01:32;10.37;82.24
68977;SHT31;56029;52.568;13.588;2023-12-29T10:03:58;10.34;82.60
68977;SHT31;56029;52.568;13.588;2023-12-29T10:06:25;10.31;82.36
68977;SHT31;56029;52.568;13.588;2023-12-29T10:08:50;10.31;82.18
68977;SHT31;56029;52.568;13.588;2023-12-29T10:11:18;10.34;82.64
68977;SHT31;56029;52.568;13.588;2023-12-29T10:13:49;10.40;82.31
68977;SHT31;56029;52.568;13.588;2023-12-29T10:16:41;10.44;82.37
68977;SHT31;56029;52.568;13.588;2023-12-29T10:19:23;10.41;82.08
68977;SHT31;56029;52.568;13.588;2023-12-29T10:21:58;10.42;82.70
68977;SHT31;56029;52.568;13.588;2023-12-29T10:24:26;10.46;81.57
68977;SHT31;56029;52.568;13.588;2023-12-29T10:26:51;10.54;81.91
68977;SHT31;56029;52.568;13.588;2023-12-29T10:29:17;10.54;81.72
68977;SHT31;56029;52.568;13.588;2023-12-29T10:31:44;10.56;81.26
68977;SHT31;56029;52.568;13.588;2023-12-29T10:34:25;10.65;80.93
68977;SHT31;56029;52.568;13.588;2023-12-29T10:36:51;10.69;80.57
68977;SHT31;56029;52.568;13.588;2023-12-29T10:39:16;10.71;80.75
68977;SHT31;56029;52.568;13.588;2023-12-29T10:41:42;10.72;80.66
68977;SHT31;56029;52.568;13.588;2023-12-29T10:44:08;10.77;80.99
68977;SHT31;56029;52.568;13.588;2023-12-29T10:46:34;10.77;80.62
68977;SHT31;56029;52.568;13.588;2023-12-29T10:49:07;10.79;80.21
68977;SHT31;56029;52.568;13.588;2023-12-29T10:51:33;10.82;80.21
68977;SHT31;56029;52.568;13.588;2023-12-29T10:53:59;10.79;80.88
68977;SHT31;56029;52.568;13.588;2023-12-29T10:56:25;10.79;80.67
68977;SHT31;56029;52.568;13.588;2023-12-29T11:01:26;10.89;80.51
68977;SHT31;56029;52.568;13.588;2023-12-29T11:04:02;10.85;80.08
68977;SHT31;56029;52.568;13.588;2023-12-29T11:06:28;10.86;80.37
68977;SHT31;56029;52.568;13.588;2023-12-29T11:08:55;10.83;80.02
68977;SHT31;56029;52.568;13.588;2023-12-29T11:11:21;10.89;80.01
68977;SHT31;56029;52.568;13.588;2023-12-29T11:13:48;10.85;80.03
68977;SHT31;56029;52.568;13.588;2023-12-29T11:16:14;10.82;80.18
68977;SHT31;56029;52.568;13.588;2023-12-29T11:18:41;10.85;79.75
68977;SHT31;56029;52.568;13.588;2023-12-29T11:21:07;10.91;80.19
68977;SHT31;56029;52.568;13.588;2023-12-29T11:23:33;10.91;80.07
68977;SHT31;56029;52.568;13.588;2023-12-29T11:25:59;10.91;79.46
68977;SHT31;56029;52.568;13.588;2023-12-29T11:28:25;10.95;79.43
68977;SHT31;56029;52.568;13.588;2023-12-29T11:30:51;10.96;79.66
68977;SHT31;56029;52.568;13.588;2023-12-29T11:35:51;10.95;79.14
68977;SHT31;56029;52.568;13.588;2023-12-29T11:41:28;11.02;78.84
68977;SHT31;56029;52.568;13.588;2023-12-29T11:43:59;11.02;79.02
68977;SHT31;56029;52.568;13.588;2023-12-29T11:46:44;10.99;79.15
68977;SHT31;56029;52.568;13.588;2023-12-29T11:49:10;11.02;79.03
68977;SHT31;56029;52.568;13.588;2023-12-29T11:51:40;10.99;79.42
68977;SHT31;56029;52.568;13.588;2023-12-29T11:54:06;11.03;79.71
68977;SHT31;56029;52.568;13.588;2023-12-29T11:56:40;11.06;78.67
68977;SHT31;56029;52.568;13.588;2023-12-29T11:59:20;11.03;79.11
68977;SHT31;56029;52.568;13.588;2023-12-29T12:01:58;11.04;78.82
68977;SHT31;56029;52.568;13.588;2023-12-29T12:04:42;11.03;78.72
68977;SHT31;56029;52.568;13.588;2023-12-29T12:07:13;11.02;78.99
68977;SHT31;56029;52.568;13.588;2023-12-29T12:09:38;11.03;78.88
68977;SHT31;56029;52.568;13.588;2023-12-29T12:12:05;11.07;78.50
68977;SHT31;56029;52.568;13.588;2023-12-29T12:14:46;11.02;79.06
68977;SHT31;56029;52.568;13.588;2023-12-29T12:17:26;10.96;79.74
68977;SHT31;56029;52.568;13.588;2023-12-29T12:19:55;10.96;80.18
68977;SHT31;56029;52.568;13.588;2023-12-29T12:22:24;10.96;80.67
68977;SHT31;56029;52.568;13.588;2023-12-29T12:24:55;10.88;80.62
68977;SHT31;56029;52.568;13.588;2023-12-29T12:27:21;10.82;81.30
68977;SHT31;56029;52.568;13.588;2023-12-29T12:29:49;10.77;81.20
68977;SHT31;56029;52.568;13.588;2023-12-29T12:32:16;10.82;81.52
68977;SHT31;56029;52.568;13.588;2023-12-29T12:34:41;10.77;82.01
68977;SHT31;56029;52.568;13.588;2023-12-29T12:37:08;10.73;83.45
68977;SHT31;56029;52.568;13.588;2023-12-29T12:39:40;10.58;84.21
68977;SHT31;56029;52.568;13.588;2023-12-29T12:42:06;10.54;84.21
68977;SHT31;56029;52.568;13.588;2023-12-29T12:44:31;10.48;84.65
68977;SHT31;56029;52.568;13.588;2023-12-29T12:46:59;10.37;85.72
68977;SHT31;56029;52.568;13.588;2023-12-29T12:49:25;10.30;85.83
68977;SHT31;56029;52.568;13.588;2023-12-29T12:51:52;10.31;85.56
68977;SHT31;56029;52.568;13.588;2023-12-29T12:54:19;10.27;85.95
68977;SHT31;56029;52.568;13.588;2023-12-29T12:56:46;10.21;86.73
68977;SHT31;56029;52.568;13.588;2023-12-29T12:59:12;10.20;86.95
68977;SHT31;56029;52.568;13.588;2023-12-29T13:01:38;10.08;88.75
68977;SHT31;56029;52.568;13.588;2023-12-29T13:04:05;10.13;87.43
68977;SHT31;56029;52.568;13.588;2023-12-29T13:06:32;10.11;87.72
68977;SHT31;56029;52.568;13.588;2023-12-29T13:08:58;10.08;88.90
68977;SHT31;56029;52.568;13.588;2023-12-29T13:11:24;10.01;89.55
68977;SHT31;56029;52.568;13.588;2023-12-29T13:13:49;9.96;89.88
68977;SHT31;56029;52.568;13.588;2023-12-29T13:16:15;9.96;89.83
68977;SHT31;56029;52.568;13.588;2023-12-29T13:18:40;9.90;90.45
68977;SHT31;56029;52.568;13.588;2023-12-29T13:21:06;9.83;91.13
68977;SHT31;56029;52.568;13.588;2023-12-29T13:23:32;9.82;90.82
68977;SHT31;56029;52.568;13.588;2023-12-29T13:26:02;9.89;90.08
68977;SHT31;56029;52.568;13.588;2023-12-29T13:28:31;9.89;90.43
68977;SHT31;56029;52.568;13.588;2023-12-29T13:30:57;9.90;90.68
68977;SHT31;56029;52.568;13.588;2023-12-29T13:34:11;9.93;90.71
68977;SHT31;56029;52.568;13.588;2023-12-29T13:36:26;9.96;91.07
68977;SHT31;56029;52.568;13.588;2023-12-29T13:39:07;9.94;90.16
68977;SHT31;56029;52.568;13.588;2023-12-29T13:41:36;9.94;89.72
68977;SHT31;56029;52.568;13.588;2023-12-29T13:44:02;9.98;90.01
68977;SHT31;56029;52.568;13.588;2023-12-29T13:46:28;10.01;89.44
68977;SHT31;56029;52.568;13.588;2023-12-29T13:48:54;10.01;89.32
68977;SHT31;56029;52.568;13.588;2023-12-29T13:51:26;10.07;88.72
68977;SHT31;56029;52.568;13.588;2023-12-29T13:54:01;10.10;88.07
68977;SHT31;56029;52.568;13.588;2023-12-29T13:56:27;10.17;87.99
68977;SHT31;56029;52.568;13.588;2023-12-29T13:58:53;10.14;88.34
68977;SHT31;56029;52.568;13.588;2023-12-29T14:01:19;10.16;87.63
68977;SHT31;56029;52.568;13.588;2023-12-29T14:03:54;10.16;87.78
68977;SHT31;56029;52.568;13.588;2023-12-29T14:06:38;10.24;87.44
68977;SHT31;56029;52.568;13.588;2023-12-29T14:09:06;10.17;87.53
68977;SHT31;56029;52.568;13.588;2023-12-29T14:11:31;10.18;87.26
68977;SHT31;56029;52.568;13.588;2023-12-29T14:13:57;10.24;86.83
68977;SHT31;56029;52.568;13.588;2023-12-29T14:16:23;10.22;87.46
68977;SHT31;56029;52.568;13.588;2023-12-29T14:18:53;10.27;87.08
68977;SHT31;56029;52.568;13.588;2023-12-29T14:21:32;10.31;86.91
68977;SHT31;56029;52.568;13.588;2023-12-29T14:24:12;10.34;86.82
68977;SHT31;56029;52.568;13.588;2023-12-29T14:26:42;10.37;86.32
68977;SHT31;56029;52.568;13.588;2023-12-29T14:29:09;10.34;86.81
68977;SHT31;56029;52.568;13.588;2023-12-29T14:31:39;10.34;86.52
68977;SHT31;56029;52.568;13.588;2023-12-29T14:34:06;10.40;86.16
68977;SHT31;56029;52.568;13.588;2023-12-29T14:36:32;10.27;86.80
68977;SHT31;56029;52.568;13.588;2023-12-29T14:38:58;10.21;86.73
68977;SHT31;56029;52.568;13.588;2023-12-29T14:41:24;10.25;86.21
68977;SHT31;56029;52.568;13.588;2023-12-29T14:43:51;10.24;86.36
68977;SHT31;56029;52.568;13.588;2023-12-29T14:46:16;10.30;86.39
68977;SHT31;56029;52.568;13.588;2023-12-29T14:48:42;10.31;86.47
68977;SHT31;56029;52.568;13.588;2023-12-29T14:51:07;10.31;86.60
68977;SHT31;56029;52.568;13.588;2023-12-29T14:53:33;10.35;86.42
68977;SHT31;56029;52.568;13.588;2023-12-29T14:55:59;10.30;86.56
68977;SHT31;56029;52.568;13.588;2023-12-29T14:58:25;10.40;85.75
68977;SHT31;56029;52.568;13.588;2023-12-29T15:00:51;10.42;85.99
68977;SHT31;56029;52.568;13.588;2023-12-29T15:03:16;10.37;86.20
68977;SHT31;56029;52.568;13.588;2023-12-29T15:05:45;10.35;86.14
68977;SHT31;56029;52.568;13.588;2023-12-29T15:08:11;10.40;85.67
68977;SHT31;56029;52.568;13.588;2023-12-29T15:10:37;10.44;85.55
68977;SHT31;56029;52.568;13.588;2023-12-29T15:13:03;10.35;86.24
68977;SHT31;56029;52.568;13.588;2023-12-29T15:15:29;10.34;86.12
68977;SHT31;56029;52.568;13.588;2023-12-29T15:17:54;10.34;85.68
68977;SHT31;56029;52.568;13.588;2023-12-29T15:20:20;10.34;85.76
68977;SHT31;56029;52.568;13.588;2023-12-29T15:22:45;10.28;86.09
68977;SHT31;56029;52.568;13.588;2023-12-29T15:25:11;10.20;86.38
68977;SHT31;56029;52.568;13.588;2023-12-29T15:27:36;10.17;86.70
68977;SHT31;56029;52.568;13.588;2023-12-29T15:30:02;10.24;86.01
68977;SHT31;56029;52.568;13.588;2023-12-29T15:32:28;10.20;86.31